Time,TemperatureF,DewpointF,PressureIn,WindDirection,WindDirectionDegrees,WindSpeedMPH,WindSpeedGustMPH,Humidity,HourlyPrecipIn,Conditions,Clouds,dailyrainin,SoftwareType,DateUTC
2013-01-08 00:07:00,22.8,9.1,30.08,ESE,112,0.0,2.0,55,0.00,,,0.00,meteohub,2013-01-08 07:07:00,
2013-01-08 00:12:00,23.0,8.8,30.08,ESE,112,0.0,2.0,54,0.00,,,0.00,meteohub,2013-01-08 07:12:00,
2013-01-08 00:17:00,23.2,8.6,30.08,ESE,112,0.0,2.0,53,0.00,,,0.00,meteohub,2013-01-08 07:17:00,
2013-01-08 00:22:00,23.5,8.6,30.07,ESE,112,0.0,0.0,52,0.00,,,0.00,meteohub,2013-01-08 07:22:00,
2013-01-08 00:27:00,23.5,8.6,30.07,NNE,22,0.0,0.0,52,0.00,,,0.00,meteohub,2013-01-08 07:27:00,
2013-01-08 00:32:00,23.7,8.8,30.07,NNE,22,0.0,0.0,52,0.00,,,0.00,meteohub,2013-01-08 07:32:00,
2013-01-08 00:37:00,23.9,8.8,30.07,NE,45,0.0,0.0,52,0.00,,,0.00,meteohub,2013-01-08 07:37:00,
2013-01-08 00:42:00,24.3,8.8,30.06,NNW,338,0.0,0.0,51,0.00,,,0.00,meteohub,2013-01-08 07:42:00,
2013-01-08 00:47:00,25.0,9.5,30.02,SSE,158,0.0,2.0,51,0.00,,,0.00,meteohub,2013-01-08 07:47:00,
2013-01-08 00:52:00,24.8,9.3,30.02,SE,135,0.0,2.0,51,0.00,,,0.00,meteohub,2013-01-08 07:52:00,
2013-01-08 00:57:00,25.0,9.0,30.02,NNW,338,2.0,2.0,50,0.00,,,0.00,meteohub,2013-01-08 07:57:00,
2013-01-08 01:02:00,25.5,9.5,30.05,NNE,22,0.0,3.0,50,0.00,,,0.00,meteohub,2013-01-08 08:02:00,
2013-01-08 01:07:00,25.5,9.0,30.05,NNE,22,0.0,3.0,49,0.00,,,0.00,meteohub,2013-01-08 08:07:00,
2013-01-08 01:12:00,25.7,8.8,30.05,NNE,22,0.0,2.0,48,0.00,,,0.00,meteohub,2013-01-08 08:12:00,
2013-01-08 01:17:00,25.9,9.0,30.04,NNE,22,0.0,1.0,48,0.00,,,0.00,meteohub,2013-01-08 08:17:00,
2013-01-08 01:22:00,26.2,8.8,30.04,NNE,22,0.0,1.0,47,0.00,,,0.00,meteohub,2013-01-08 08:22:00,
2013-01-08 01:27:00,26.8,8.8,30.03,ENE,68,0.0,1.0,46,0.00,,,0.00,meteohub,2013-01-08 08:27:00,
2013-01-08 01:32:00,27.0,9.0,30.03,NNE,22,0.0,1.0,46,0.00,,,0.00,meteohub,2013-01-08 08:32:00,
2013-01-08 01:37:00,27.9,8.8,30.02,NNW,338,0.0,2.0,44,0.00,,,0.00,meteohub,2013-01-08 08:37:00,
2013-01-08 01:42:00,28.9,9.3,30.01,WNW,292,0.0,2.0,43,0.00,,,0.00,meteohub,2013-01-08 08:42:00,
2013-01-08 01:47:00,32.0,10.4,29.97,NW,315,3.0,5.0,40,0.00,,,0.00,meteohub,2013-01-08 08:47:00,
2013-01-08 01:52:00,34.0,12.2,29.94,NW,315,4.0,8.0,40,0.00,,,0.00,meteohub,2013-01-08 08:52:00,
2013-01-08 01:57:00,36.3,11.3,29.92,WNW,292,6.0,8.0,35,0.00,,,0.00,meteohub,2013-01-08 08:57:00,
2013-01-08 02:02:00,38.5,12.6,29.89,SSW,202,1.0,8.0,34,0.00,,,0.00,meteohub,2013-01-08 09:02:00,
2013-01-08 02:07:00,39.6,12.9,29.88,SW,225,3.0,8.0,33,0.00,,,0.00,meteohub,2013-01-08 09:07:00,
2013-01-08 02:12:00,40.5,13.6,29.87,SW,225,3.0,8.0,33,0.00,,,0.00,meteohub,2013-01-08 09:12:00,
2013-01-08 02:17:00,39.7,13.1,29.88,SSW,202,0.0,6.0,33,0.00,,,0.00,meteohub,2013-01-08 09:17:00,
2013-01-08 02:22:00,38.7,12.0,29.89,West,270,2.0,6.0,33,0.00,,,0.00,meteohub,2013-01-08 09:22:00,
2013-01-08 02:27:00,38.5,12.0,29.89,SSW,202,0.0,7.0,33,0.00,,,0.00,meteohub,2013-01-08 09:27:00,
2013-01-08 02:32:00,38.8,11.7,29.88,West,270,1.0,7.0,32,0.00,,,0.00,meteohub,2013-01-08 09:32:00,
2013-01-08 02:37:00,40.5,12.2,29.87,SSW,202,3.0,12.0,31,0.00,,,0.00,meteohub,2013-01-08 09:37:00,
2013-01-08 02:42:00,41.9,13.5,29.85,West,270,6.0,12.0,31,0.00,,,0.00,meteohub,2013-01-08 09:42:00,
2013-01-08 02:47:00,42.3,13.1,29.85,South,180,5.0,15.0,30,0.00,,,0.00,meteohub,2013-01-08 09:47:00,
2013-01-08 02:52:00,43.0,12.9,29.84,SW,225,6.0,15.0,29,0.00,,,0.00,meteohub,2013-01-08 09:52:00,
2013-01-08 02:57:00,43.5,13.5,29.83,ESE,112,11.0,11.0,29,0.00,,,0.00,meteohub,2013-01-08 09:57:00,
2013-01-08 03:02:00,45.0,13.8,29.78,NNW,338,7.0,11.0,28,0.00,,,0.00,meteohub,2013-01-08 10:02:00,
2013-01-08 03:07:00,45.3,14.2,29.77,SSW,202,3.0,15.0,28,0.00,,,0.00,meteohub,2013-01-08 10:07:00,
2013-01-08 03:12:00,45.3,14.2,29.77,West,270,5.0,15.0,28,0.00,,,0.00,meteohub,2013-01-08 10:12:00,
2013-01-08 03:17:00,44.8,13.8,29.78,SSE,158,1.0,15.0,28,0.00,,,0.00,meteohub,2013-01-08 10:17:00,
2013-01-08 03:22:00,44.1,14.0,29.79,SSW,202,0.0,10.0,29,0.00,,,0.00,meteohub,2013-01-08 10:22:00,
2013-01-08 03:32:00,43.0,12.9,29.80,NNW,338,0.0,6.0,29,0.00,,,0.00,meteohub,2013-01-08 10:32:00,
2013-01-08 03:37:00,42.3,12.4,29.81,NNW,338,0.0,4.0,29,0.00,,,0.00,meteohub,2013-01-08 10:37:00,
2013-01-08 03:47:00,41.7,11.8,29.85,West,270,0.0,5.0,29,0.00,,,0.00,meteohub,2013-01-08 10:47:00,
2013-01-08 03:52:00,41.5,11.7,29.85,West,270,0.0,5.0,29,0.00,,,0.00,meteohub,2013-01-08 10:52:00,
2013-01-08 03:57:00,40.8,11.1,29.86,ENE,68,0.0,5.0,29,0.00,,,0.00,meteohub,2013-01-08 10:57:00,
2013-01-08 04:02:00,39.9,10.4,29.87,ENE,68,2.0,0.0,29,0.00,,,0.00,meteohub,2013-01-08 11:02:00,
2013-01-08 04:07:00,39.6,10.0,29.88,NW,315,2.0,3.0,29,0.00,,,0.00,meteohub,2013-01-08 11:07:00,
2013-01-08 04:12:00,39.4,10.6,29.88,NNW,338,3.0,4.0,30,0.00,,,0.00,meteohub,2013-01-08 11:12:00,
2013-01-08 04:17:00,40.5,11.5,29.87,NW,315,4.0,4.0,30,0.00,,,0.00,meteohub,2013-01-08 11:17:00,
2013-01-08 04:22:00,42.4,13.3,29.84,NNW,338,6.0,9.0,30,0.00,,,0.00,meteohub,2013-01-08 11:22:00,
2013-01-08 04:27:00,43.3,14.7,29.83,NW,315,2.0,14.0,31,0.00,,,0.00,meteohub,2013-01-08 11:27:00,
2013-01-08 04:32:00,43.3,14.7,29.83,NNE,22,1.0,14.0,31,0.00,,,0.00,meteohub,2013-01-08 11:32:00,
2013-01-08 04:37:00,43.5,14.9,29.83,WNW,292,2.0,14.0,31,0.00,,,0.00,meteohub,2013-01-08 11:37:00,
2013-01-08 04:42:00,43.5,14.2,29.83,WNW,292,3.0,6.0,30,0.00,,,0.00,meteohub,2013-01-08 11:42:00,
2013-01-08 04:47:00,43.2,13.8,29.83,WNW,292,2.0,6.0,30,0.00,,,0.00,meteohub,2013-01-08 11:47:00,
2013-01-08 04:52:00,43.0,14.5,29.84,WSW,248,2.0,10.0,31,0.00,,,0.00,meteohub,2013-01-08 11:52:00,
2013-01-08 04:57:00,43.5,14.9,29.83,NNW,338,1.0,10.0,31,0.00,,,0.00,meteohub,2013-01-08 11:57:00,
2013-01-08 05:02:00,44.1,14.7,29.82,West,270,3.0,14.0,30,0.00,,,0.00,meteohub,2013-01-08 12:02:00,
2013-01-08 05:07:00,44.4,15.1,29.82,SW,225,7.0,16.0,30,0.00,,,0.00,meteohub,2013-01-08 12:07:00,
2013-01-08 05:12:00,44.2,14.9,29.82,WSW,248,4.0,16.0,30,0.00,,,0.00,meteohub,2013-01-08 12:12:00,
2013-01-08 05:17:00,44.2,14.9,29.82,South,180,11.0,16.0,30,0.00,,,0.00,meteohub,2013-01-08 12:17:00,
2013-01-08 05:22:00,44.2,14.0,29.82,SW,225,6.0,15.0,29,0.00,,,0.00,meteohub,2013-01-08 12:22:00,
2013-01-08 05:27:00,44.1,14.0,29.82,WSW,248,2.0,15.0,29,0.00,,,0.00,meteohub,2013-01-08 12:27:00,
2013-01-08 05:32:00,43.7,13.6,29.83,WNW,292,2.0,11.0,29,0.00,,,0.00,meteohub,2013-01-08 12:32:00,
2013-01-08 05:37:00,43.3,13.3,29.83,SW,225,0.0,9.0,29,0.00,,,0.00,meteohub,2013-01-08 12:37:00,
2013-01-08 05:42:00,43.0,12.9,29.84,WNW,292,4.0,6.0,29,0.00,,,0.00,meteohub,2013-01-08 12:42:00,
2013-01-08 05:47:00,42.4,13.3,29.88,West,270,0.0,7.0,30,0.00,,,0.00,meteohub,2013-01-08 12:47:00,
2013-01-08 05:52:00,41.5,12.6,29.89,West,270,0.0,7.0,30,0.00,,,0.00,meteohub,2013-01-08 12:52:00,
2013-01-08 05:57:00,40.5,11.5,29.90,West,270,0.0,7.0,30,0.00,,,0.00,meteohub,2013-01-08 12:57:00,
2013-01-08 06:02:00,39.9,11.1,29.91,NW,315,0.0,0.0,30,0.00,,,0.00,meteohub,2013-01-08 13:02:00,
2013-01-08 06:07:00,38.8,10.9,29.92,NW,315,0.0,0.0,31,0.00,,,0.00,meteohub,2013-01-08 13:07:00,
2013-01-08 06:12:00,38.1,10.2,29.93,SW,225,3.0,0.0,31,0.00,,,0.00,meteohub,2013-01-08 13:12:00,
2013-01-08 06:17:00,38.5,10.6,29.93,SW,225,0.0,5.0,31,0.00,,,0.00,meteohub,2013-01-08 13:17:00,
2013-01-08 06:22:00,38.7,10.8,29.92,NNW,338,4.0,5.0,31,0.00,,,0.00,meteohub,2013-01-08 13:22:00,
2013-01-08 06:27:00,39.7,11.7,29.91,WSW,248,0.0,8.0,31,0.00,,,0.00,meteohub,2013-01-08 13:27:00,
2013-01-08 06:32:00,39.9,11.8,29.91,WSW,248,4.0,8.0,31,0.00,,,0.00,meteohub,2013-01-08 13:32:00,
2013-01-08 06:37:00,39.6,10.8,29.91,WSW,248,0.0,8.0,30,0.00,,,0.00,meteohub,2013-01-08 13:37:00,
2013-01-08 06:42:00,38.8,10.9,29.92,WSW,248,0.0,5.0,31,0.00,,,0.00,meteohub,2013-01-08 13:42:00,
2013-01-08 06:47:00,38.1,10.2,29.93,ENE,68,0.0,4.0,31,0.00,,,0.00,meteohub,2013-01-08 13:47:00,
2013-01-08 06:52:00,37.4,9.7,29.94,ENE,68,0.0,1.0,31,0.00,,,0.00,meteohub,2013-01-08 13:52:00,
2013-01-08 06:57:00,36.9,9.1,29.95,East,90,0.0,1.0,31,0.00,,,0.00,meteohub,2013-01-08 13:57:00,
2013-01-08 07:02:00,36.7,9.0,29.95,NNE,22,0.0,1.0,31,0.00,,,0.00,meteohub,2013-01-08 14:02:00,
2013-01-08 07:07:00,36.9,9.9,29.95,NNW,338,0.0,3.0,32,0.00,,,0.00,meteohub,2013-01-08 14:07:00,
2013-01-08 07:12:00,36.3,9.3,29.95,NNW,338,0.0,3.0,32,0.00,,,0.00,meteohub,2013-01-08 14:12:00,
2013-01-08 07:17:00,36.3,9.3,29.95,West,270,0.0,3.0,32,0.00,,,0.00,meteohub,2013-01-08 14:17:00,
2013-01-08 07:22:00,36.7,9.7,29.95,WNW,292,0.0,3.0,32,0.00,,,0.00,meteohub,2013-01-08 14:22:00,
2013-01-08 07:27:00,36.7,9.7,29.95,WNW,292,0.0,3.0,32,0.00,,,0.00,meteohub,2013-01-08 14:27:00,
2013-01-08 07:32:00,37.0,10.0,29.98,NNW,338,3.0,3.0,32,0.00,,,0.00,meteohub,2013-01-08 14:32:00,
2013-01-08 07:37:00,38.1,10.9,29.97,NNW,338,2.0,3.0,32,0.00,,,0.00,meteohub,2013-01-08 14:37:00,
2013-01-08 07:42:00,38.5,11.3,29.96,WSW,248,1.0,5.0,32,0.00,,,0.00,meteohub,2013-01-08 14:42:00,
2013-01-08 07:47:00,39.0,11.7,29.96,North,0,2.0,6.0,32,0.00,,,0.00,meteohub,2013-01-08 14:47:00,
2013-01-08 07:52:00,41.0,12.7,29.93,ENE,68,3.0,6.0,31,0.00,,,0.00,meteohub,2013-01-08 14:52:00,
2013-01-08 07:57:00,42.4,14.0,29.91,West,270,2.0,9.0,31,0.00,,,0.00,meteohub,2013-01-08 14:57:00,
2013-01-08 08:02:00,43.3,14.0,29.91,NNW,338,3.0,10.0,30,0.00,,,0.00,meteohub,2013-01-08 15:02:00,
2013-01-08 08:07:00,44.1,14.7,29.90,WNW,292,0.0,10.0,30,0.00,,,0.00,meteohub,2013-01-08 15:07:00,
2013-01-08 08:12:00,44.6,15.1,29.89,NW,315,2.0,9.0,30,0.00,,,0.00,meteohub,2013-01-08 15:12:00,
2013-01-08 08:17:00,44.6,15.1,29.89,NNW,338,2.0,9.0,30,0.00,,,0.00,meteohub,2013-01-08 15:17:00,
2013-01-08 08:22:00,45.0,15.4,29.88,West,270,2.0,9.0,30,0.00,,,0.00,meteohub,2013-01-08 15:22:00,
2013-01-08 08:27:00,45.5,16.0,29.88,WSW,248,1.0,7.0,30,0.00,,,0.00,meteohub,2013-01-08 15:27:00,
2013-01-08 08:32:00,45.3,15.8,29.92,SSE,158,0.0,7.0,30,0.00,,,0.00,meteohub,2013-01-08 15:32:00,
2013-01-08 08:37:00,45.0,15.4,29.92,ESE,112,0.0,7.0,30,0.00,,,0.00,meteohub,2013-01-08 15:37:00,
2013-01-08 08:42:00,44.8,15.3,29.92,ESE,112,0.0,6.0,30,0.00,,,0.00,meteohub,2013-01-08 15:42:00,
2013-01-08 08:47:00,44.8,15.3,29.92,ESE,112,0.0,0.0,30,0.00,,,0.00,meteohub,2013-01-08 15:47:00,
2013-01-08 08:52:00,44.6,15.1,29.93,ESE,112,4.0,0.0,30,0.00,,,0.00,meteohub,2013-01-08 15:52:00,
2013-01-08 08:57:00,44.8,15.3,29.92,ENE,68,0.0,4.0,30,0.00,,,0.00,meteohub,2013-01-08 15:57:00,
2013-01-08 09:02:00,45.0,15.4,29.92,ESE,112,0.0,4.0,30,0.00,,,0.00,meteohub,2013-01-08 16:02:00,
2013-01-08 09:07:00,45.1,15.6,29.92,SE,135,6.0,6.0,30,0.00,,,0.00,meteohub,2013-01-08 16:07:00,
2013-01-08 09:12:00,45.0,15.4,29.92,ESE,112,0.0,8.0,30,0.00,,,0.00,meteohub,2013-01-08 16:12:00,
2013-01-08 09:17:00,45.1,15.6,29.92,SSW,202,8.0,8.0,30,0.00,,,0.00,meteohub,2013-01-08 16:17:00,
2013-01-08 09:22:00,46.0,15.6,29.91,WSW,248,3.0,13.0,29,0.00,,,0.00,meteohub,2013-01-08 16:22:00,
2013-01-08 09:27:00,46.8,16.3,29.90,SSW,202,0.0,13.0,29,0.00,,,0.00,meteohub,2013-01-08 16:27:00,
2013-01-08 09:32:00,47.3,16.7,29.89,WNW,292,0.0,13.0,29,0.00,,,0.00,meteohub,2013-01-08 16:32:00,
2013-01-08 09:37:00,48.2,16.7,29.88,NNE,22,4.0,9.0,28,0.00,,,0.00,meteohub,2013-01-08 16:37:00,
2013-01-08 09:42:00,49.1,17.4,29.87,NNW,338,7.0,10.0,28,0.00,,,0.00,meteohub,2013-01-08 16:42:00,
2013-01-08 09:47:00,49.5,17.8,29.87,NNW,338,3.0,10.0,28,0.00,,,0.00,meteohub,2013-01-08 16:47:00,
2013-01-08 09:52:00,50.0,17.4,29.86,NNW,338,3.0,10.0,27,0.00,,,0.00,meteohub,2013-01-08 16:52:00,
2013-01-08 09:57:00,50.2,17.6,29.86,NNW,338,2.0,8.0,27,0.00,,,0.00,meteohub,2013-01-08 16:57:00,
2013-01-08 10:02:00,50.2,17.6,29.86,NNW,338,0.0,7.0,27,0.00,,,0.00,meteohub,2013-01-08 17:02:00,
2013-01-08 10:07:00,50.2,17.6,29.86,East,90,0.0,6.0,27,0.00,,,0.00,meteohub,2013-01-08 17:07:00,
2013-01-08 10:12:00,50.4,17.8,29.86,SW,225,0.0,6.0,27,0.00,,,0.00,meteohub,2013-01-08 17:12:00,
2013-01-08 10:17:00,50.4,17.8,29.86,SE,135,0.0,3.0,27,0.00,,,0.00,meteohub,2013-01-08 17:17:00,
2013-01-08 10:22:00,50.5,17.8,29.86,WSW,248,0.0,8.0,27,0.00,,,0.00,meteohub,2013-01-08 17:22:00,
2013-01-08 10:27:00,50.7,18.0,29.86,SSE,158,0.0,8.0,27,0.00,,,0.00,meteohub,2013-01-08 17:27:00,
2013-01-08 10:32:00,51.1,18.3,29.89,SSE,158,0.0,6.0,27,0.00,,,0.00,meteohub,2013-01-08 17:32:00,
2013-01-08 10:37:00,51.3,18.5,29.88,WNW,292,3.0,4.0,27,0.00,,,0.00,meteohub,2013-01-08 17:37:00,
2013-01-08 10:42:00,51.6,18.9,29.88,NNW,338,2.0,6.0,27,0.00,,,0.00,meteohub,2013-01-08 17:42:00,
2013-01-08 10:47:00,52.0,19.0,29.88,NNW,338,4.0,6.0,27,0.00,,,0.00,meteohub,2013-01-08 17:47:00,
2013-01-08 10:52:00,52.2,19.2,29.88,SW,225,3.0,15.0,27,0.00,,,0.00,meteohub,2013-01-08 17:52:00,
2013-01-08 10:57:00,52.2,19.2,29.88,WSW,248,6.0,15.0,27,0.00,,,0.00,meteohub,2013-01-08 17:57:00,
2013-01-08 11:02:00,52.2,19.2,29.88,South,180,4.0,15.0,27,0.00,,,0.00,meteohub,2013-01-08 18:02:00,
2013-01-08 11:07:00,51.8,18.9,29.88,WSW,248,1.0,12.0,27,0.00,,,0.00,meteohub,2013-01-08 18:07:00,
2013-01-08 11:12:00,51.8,18.9,29.88,SW,225,0.0,9.0,27,0.00,,,0.00,meteohub,2013-01-08 18:12:00,
2013-01-08 11:17:00,51.8,18.9,29.88,NW,315,5.0,9.0,27,0.00,,,0.00,meteohub,2013-01-08 18:17:00,
2013-01-08 11:22:00,51.8,18.9,29.88,WNW,292,6.0,6.0,27,0.00,,,0.00,meteohub,2013-01-08 18:22:00,
2013-01-08 11:27:00,51.6,18.9,29.88,WNW,292,11.0,13.0,27,0.00,,,0.00,meteohub,2013-01-08 18:27:00,
2013-01-08 11:32:00,51.3,18.5,29.88,NNW,338,4.0,14.0,27,0.00,,,0.00,meteohub,2013-01-08 18:32:00,
2013-01-08 11:37:00,51.4,18.7,29.88,WSW,248,9.0,15.0,27,0.00,,,0.00,meteohub,2013-01-08 18:37:00,
2013-01-08 11:42:00,51.6,18.9,29.88,WSW,248,10.0,15.0,27,0.00,,,0.00,meteohub,2013-01-08 18:42:00,
2013-01-08 11:47:00,52.0,19.0,29.88,SSW,202,10.0,17.0,27,0.00,,,0.00,meteohub,2013-01-08 18:47:00,
2013-01-08 11:52:00,52.0,19.0,29.88,WNW,292,1.0,17.0,27,0.00,,,0.00,meteohub,2013-01-08 18:52:00,
2013-01-08 11:57:00,52.2,19.2,29.88,NNW,338,4.0,15.0,27,0.00,,,0.00,meteohub,2013-01-08 18:57:00,
2013-01-08 12:02:00,52.2,19.2,29.88,WSW,248,11.0,15.0,27,0.00,,,0.00,meteohub,2013-01-08 19:02:00,
2013-01-08 12:07:00,52.2,19.2,29.88,SSW,202,4.0,15.0,27,0.00,,,0.00,meteohub,2013-01-08 19:07:00,
2013-01-08 12:12:00,52.2,19.2,29.88,WSW,248,4.0,15.0,27,0.00,,,0.00,meteohub,2013-01-08 19:12:00,
2013-01-08 12:17:00,52.3,19.4,29.84,WNW,292,11.0,15.0,27,0.00,,,0.00,meteohub,2013-01-08 19:17:00,
2013-01-08 12:22:00,52.5,19.6,29.83,NNW,338,5.0,15.0,27,0.00,,,0.00,meteohub,2013-01-08 19:22:00,
2013-01-08 12:27:00,52.5,19.6,29.83,WNW,292,3.0,15.0,27,0.00,,,0.00,meteohub,2013-01-08 19:27:00,
2013-01-08 12:32:00,52.7,19.8,29.87,NE,45,4.0,12.0,27,0.00,,,0.00,meteohub,2013-01-08 19:32:00,
2013-01-08 12:37:00,52.9,19.9,29.87,WSW,248,8.0,12.0,27,0.00,,,0.00,meteohub,2013-01-08 19:37:00,
2013-01-08 12:42:00,52.5,19.6,29.87,WSW,248,3.0,12.0,27,0.00,,,0.00,meteohub,2013-01-08 19:42:00,
2013-01-08 12:47:00,52.3,19.4,29.87,NW,315,6.0,11.0,27,0.00,,,0.00,meteohub,2013-01-08 19:47:00,
2013-01-08 12:52:00,52.2,19.2,29.88,WNW,292,7.0,11.0,27,0.00,,,0.00,meteohub,2013-01-08 19:52:00,
2013-01-08 12:57:00,52.2,19.2,29.88,NNW,338,0.0,11.0,27,0.00,,,0.00,meteohub,2013-01-08 19:57:00,
2013-01-08 13:02:00,52.0,18.1,29.88,SW,225,5.0,11.0,26,0.00,,,0.00,meteohub,2013-01-08 20:02:00,
2013-01-08 13:07:00,52.0,18.1,29.88,SSW,202,4.0,14.0,26,0.00,,,0.00,meteohub,2013-01-08 20:07:00,
2013-01-08 13:12:00,52.2,18.3,29.88,SW,225,12.0,14.0,26,0.00,,,0.00,meteohub,2013-01-08 20:12:00,
2013-01-08 13:17:00,52.0,18.1,29.88,WSW,248,3.0,13.0,26,0.00,,,0.00,meteohub,2013-01-08 20:17:00,
2013-01-08 13:22:00,52.0,18.1,29.88,NNE,22,0.0,12.0,26,0.00,,,0.00,meteohub,2013-01-08 20:22:00,
2013-01-08 13:27:00,52.2,19.2,29.88,WSW,248,6.0,12.0,27,0.00,,,0.00,meteohub,2013-01-08 20:27:00,
2013-01-08 13:32:00,52.2,19.2,29.88,SSE,158,0.0,10.0,27,0.00,,,0.00,meteohub,2013-01-08 20:32:00,
2013-01-08 13:37:00,52.5,19.6,29.87,West,270,1.0,9.0,27,0.00,,,0.00,meteohub,2013-01-08 20:37:00,
2013-01-08 13:42:00,52.7,19.8,29.87,SSE,158,0.0,6.0,27,0.00,,,0.00,meteohub,2013-01-08 20:42:00,
2013-01-08 13:47:00,52.7,19.8,29.87,SSW,202,0.0,3.0,27,0.00,,,0.00,meteohub,2013-01-08 20:47:00,
2013-01-08 13:52:00,52.5,19.6,29.87,WSW,248,0.0,4.0,27,0.00,,,0.00,meteohub,2013-01-08 20:52:00,
2013-01-08 13:57:00,52.5,19.6,29.87,SSW,202,0.0,4.0,27,0.00,,,0.00,meteohub,2013-01-08 20:57:00,
2013-01-08 14:02:00,52.7,19.8,29.91,SSW,202,0.0,4.0,27,0.00,,,0.00,meteohub,2013-01-08 21:02:00,
2013-01-08 14:07:00,52.9,19.9,29.90,SSW,202,0.0,2.0,27,0.00,,,0.00,meteohub,2013-01-08 21:07:00,
2013-01-08 14:12:00,53.1,19.2,29.90,South,180,0.0,1.0,26,0.00,,,0.00,meteohub,2013-01-08 21:12:00,
2013-01-08 14:17:00,53.1,19.2,29.90,South,180,0.0,0.0,26,0.00,,,0.00,meteohub,2013-01-08 21:17:00,
2013-01-08 14:22:00,53.1,19.2,29.90,South,180,0.0,0.0,26,0.00,,,0.00,meteohub,2013-01-08 21:22:00,
2013-01-08 14:27:00,52.7,18.9,29.91,SSW,202,4.0,0.0,26,0.00,,,0.00,meteohub,2013-01-08 21:27:00,
2013-01-08 14:32:00,52.7,18.9,29.91,WNW,292,7.0,7.0,26,0.00,,,0.00,meteohub,2013-01-08 21:32:00,
2013-01-08 14:37:00,52.5,18.7,29.91,WSW,248,9.0,9.0,26,0.00,,,0.00,meteohub,2013-01-08 21:37:00,
2013-01-08 14:42:00,52.2,18.3,29.91,WSW,248,2.0,9.0,26,0.00,,,0.00,meteohub,2013-01-08 21:42:00,
2013-01-08 14:47:00,51.8,18.1,29.95,WSW,248,1.0,9.0,26,0.00,,,0.00,meteohub,2013-01-08 21:47:00,
2013-01-08 14:52:00,51.6,18.9,29.95,WNW,292,1.0,9.0,27,0.00,,,0.00,meteohub,2013-01-08 21:52:00,
2013-01-08 14:57:00,51.4,18.7,29.96,WSW,248,0.0,7.0,27,0.00,,,0.00,meteohub,2013-01-08 21:57:00,
2013-01-08 15:02:00,51.3,18.5,29.96,SSW,202,4.0,6.0,27,0.00,,,0.00,meteohub,2013-01-08 22:02:00,
2013-01-08 15:07:00,51.1,18.3,29.96,SW,225,9.0,9.0,27,0.00,,,0.00,meteohub,2013-01-08 22:07:00,
2013-01-08 15:17:00,50.9,18.1,29.96,West,270,6.0,10.0,27,0.00,,,0.00,meteohub,2013-01-08 22:17:00,
2013-01-08 15:22:00,50.5,17.8,29.96,WSW,248,1.0,10.0,27,0.00,,,0.00,meteohub,2013-01-08 22:22:00,
2013-01-08 15:27:00,50.4,17.8,29.97,WSW,248,2.0,10.0,27,0.00,,,0.00,meteohub,2013-01-08 22:27:00,
2013-01-08 15:32:00,50.2,17.6,29.97,WNW,292,3.0,7.0,27,0.00,,,0.00,meteohub,2013-01-08 22:32:00,
2013-01-08 15:37:00,50.0,17.4,29.97,WNW,292,3.0,7.0,27,0.00,,,0.00,meteohub,2013-01-08 22:37:00,
2013-01-08 15:42:00,49.6,17.1,29.98,NNW,338,0.0,7.0,27,0.00,,,0.00,meteohub,2013-01-08 22:42:00,
2013-01-08 15:47:00,49.5,16.9,30.01,NNW,338,0.0,6.0,27,0.00,,,0.00,meteohub,2013-01-08 22:47:00,
2013-01-08 15:52:00,49.1,16.7,30.02,NW,315,3.0,4.0,27,0.00,,,0.00,meteohub,2013-01-08 22:52:00,
2013-01-08 15:57:00,48.9,16.5,30.02,NNW,338,0.0,4.0,27,0.00,,,0.00,meteohub,2013-01-08 22:57:00,
2013-01-08 16:07:00,48.2,15.8,30.03,NW,315,2.0,3.0,27,0.00,,,0.00,meteohub,2013-01-08 23:07:00,
2013-01-08 16:12:00,47.8,15.6,30.03,WSW,248,1.0,4.0,27,0.00,,,0.00,meteohub,2013-01-08 23:12:00,
2013-01-08 16:17:00,47.7,15.4,30.04,NNW,338,3.0,4.0,27,0.00,,,0.00,meteohub,2013-01-08 23:17:00,
2013-01-08 16:22:00,47.5,15.3,30.04,NNW,338,1.0,5.0,27,0.00,,,0.00,meteohub,2013-01-08 23:22:00,
2013-01-08 16:27:00,47.3,15.1,30.04,WNW,292,0.0,5.0,27,0.00,,,0.00,meteohub,2013-01-08 23:27:00,
2013-01-08 16:32:00,47.3,15.1,30.04,WNW,292,1.0,5.0,27,0.00,,,0.00,meteohub,2013-01-08 23:32:00,
2013-01-08 16:37:00,46.9,14.7,30.04,NNW,338,3.0,5.0,27,0.00,,,0.00,meteohub,2013-01-08 23:37:00,
2013-01-08 16:42:00,46.4,14.4,30.05,NNW,338,3.0,4.0,27,0.00,,,0.00,meteohub,2013-01-08 23:42:00,
2013-01-08 16:47:00,46.0,14.9,30.05,North,0,1.0,4.0,28,0.00,,,0.00,meteohub,2013-01-08 23:47:00,
2013-01-08 16:52:00,45.7,14.5,30.06,NW,315,2.0,5.0,28,0.00,,,0.00,meteohub,2013-01-08 23:52:00,
2013-01-08 16:57:00,45.5,14.4,30.06,NNW,338,1.0,5.0,28,0.00,,,0.00,meteohub,2013-01-08 23:57:00,
2013-01-08 17:02:00,45.3,14.2,30.06,WNW,292,0.0,7.0,28,0.00,,,0.00,meteohub,2013-01-09 00:02:00,
2013-01-08 17:07:00,45.1,14.0,30.06,WSW,248,3.0,7.0,28,0.00,,,0.00,meteohub,2013-01-09 00:07:00,
2013-01-08 17:12:00,44.8,13.8,30.07,NNW,338,1.0,7.0,28,0.00,,,0.00,meteohub,2013-01-09 00:12:00,
2013-01-08 17:17:00,44.8,13.8,30.10,WNW,292,4.0,6.0,28,0.00,,,0.00,meteohub,2013-01-09 00:17:00,
2013-01-08 17:22:00,45.0,13.8,30.10,NW,315,3.0,7.0,28,0.00,,,0.00,meteohub,2013-01-09 00:22:00,
2013-01-08 17:27:00,44.8,13.8,30.10,WNW,292,3.0,7.0,28,0.00,,,0.00,meteohub,2013-01-09 00:27:00,
2013-01-08 17:32:00,44.4,14.2,30.11,NW,315,0.0,7.0,29,0.00,,,0.00,meteohub,2013-01-09 00:32:00,
2013-01-08 17:37:00,44.2,14.0,30.11,NW,315,2.0,6.0,29,0.00,,,0.00,meteohub,2013-01-09 00:37:00,
2013-01-08 17:42:00,43.9,13.8,30.12,NNE,22,0.0,4.0,29,0.00,,,0.00,meteohub,2013-01-09 00:42:00,
2013-01-08 17:47:00,43.0,12.9,30.13,NNE,22,0.0,4.0,29,0.00,,,0.00,meteohub,2013-01-09 00:47:00,
2013-01-08 17:52:00,41.9,12.0,30.14,ESE,112,0.0,3.0,29,0.00,,,0.00,meteohub,2013-01-09 00:52:00,
2013-01-08 17:57:00,40.8,11.1,30.15,South,180,0.0,3.0,29,0.00,,,0.00,meteohub,2013-01-09 00:57:00,
2013-01-08 18:02:00,39.9,10.4,30.16,South,180,0.0,2.0,29,0.00,,,0.00,meteohub,2013-01-09 01:02:00,
2013-01-08 18:07:00,39.6,10.0,30.17,NE,45,0.0,0.0,29,0.00,,,0.00,meteohub,2013-01-09 01:07:00,
2013-01-08 18:12:00,39.0,10.2,30.17,NNE,22,0.0,0.0,30,0.00,,,0.00,meteohub,2013-01-09 01:12:00,
2013-01-08 18:17:00,38.5,9.9,30.18,NNE,22,0.0,0.0,30,0.00,,,0.00,meteohub,2013-01-09 01:17:00,
2013-01-08 18:22:00,38.1,9.5,30.18,NNE,22,0.0,0.0,30,0.00,,,0.00,meteohub,2013-01-09 01:22:00,
2013-01-08 18:27:00,37.2,9.5,30.19,NNE,22,0.0,0.0,31,0.00,,,0.00,meteohub,2013-01-09 01:27:00,
2013-01-08 18:32:00,36.7,9.0,30.24,NNE,22,0.0,0.0,31,0.00,,,0.00,meteohub,2013-01-09 01:32:00,
2013-01-08 18:37:00,36.1,8.4,30.25,ESE,112,0.0,1.0,31,0.00,,,0.00,meteohub,2013-01-09 01:37:00,
2013-01-08 18:42:00,35.8,8.2,30.25,ESE,112,0.0,2.0,31,0.00,,,0.00,meteohub,2013-01-09 01:42:00,
2013-01-08 18:47:00,35.8,8.2,30.25,SE,135,0.0,2.0,31,0.00,,,0.00,meteohub,2013-01-09 01:47:00,
2013-01-08 18:52:00,36.1,9.1,30.25,ESE,112,0.0,2.0,32,0.00,,,0.00,meteohub,2013-01-09 01:52:00,
2013-01-08 18:57:00,36.3,9.3,30.24,SSE,158,0.0,2.0,32,0.00,,,0.00,meteohub,2013-01-09 01:57:00,
2013-01-08 19:02:00,36.3,9.3,30.24,SSE,158,1.0,2.0,32,0.00,,,0.00,meteohub,2013-01-09 02:02:00,
2013-01-08 19:07:00,36.7,10.4,30.24,ESE,112,0.0,3.0,33,0.00,,,0.00,meteohub,2013-01-09 02:07:00,
2013-01-08 19:12:00,36.7,10.9,30.24,ESE,112,0.0,3.0,34,0.00,,,0.00,meteohub,2013-01-09 02:12:00,
2013-01-08 19:17:00,36.7,10.9,30.24,ESE,112,0.0,3.0,34,0.00,,,0.00,meteohub,2013-01-09 02:17:00,
2013-01-08 19:22:00,36.7,10.9,30.24,ESE,112,0.0,2.0,34,0.00,,,0.00,meteohub,2013-01-09 02:22:00,
2013-01-08 19:27:00,36.5,10.9,30.24,ESE,112,0.0,0.0,34,0.00,,,0.00,meteohub,2013-01-09 02:27:00,
2013-01-08 19:32:00,36.3,10.8,30.24,SSE,158,0.0,2.0,34,0.00,,,0.00,meteohub,2013-01-09 02:32:00,
2013-01-08 19:37:00,36.1,11.1,30.25,South,180,0.0,2.0,35,0.00,,,0.00,meteohub,2013-01-09 02:37:00,
2013-01-08 19:42:00,36.0,11.1,30.25,South,180,0.0,1.0,35,0.00,,,0.00,meteohub,2013-01-09 02:42:00,
2013-01-08 19:47:00,35.8,11.5,30.25,SSE,158,0.0,0.0,36,0.00,,,0.00,meteohub,2013-01-09 02:47:00,
2013-01-08 19:52:00,35.6,11.3,30.25,SSE,158,0.0,1.0,36,0.00,,,0.00,meteohub,2013-01-09 02:52:00,
2013-01-08 19:57:00,35.6,11.3,30.25,ESE,112,1.0,1.0,36,0.00,,,0.00,meteohub,2013-01-09 02:57:00,
2013-01-08 20:02:00,35.8,12.2,30.25,ESE,112,1.0,2.0,37,0.00,,,0.00,meteohub,2013-01-09 03:02:00,
2013-01-08 20:07:00,35.6,12.0,30.25,ESE,112,0.0,2.0,37,0.00,,,0.00,meteohub,2013-01-09 03:07:00,
2013-01-08 20:12:00,35.4,12.4,30.25,SE,135,0.0,2.0,38,0.00,,,0.00,meteohub,2013-01-09 03:12:00,
2013-01-08 20:17:00,35.4,12.4,30.25,SSW,202,0.0,2.0,38,0.00,,,0.00,meteohub,2013-01-09 03:17:00,
2013-01-08 20:22:00,35.2,12.2,30.25,SSW,202,0.0,0.0,38,0.00,,,0.00,meteohub,2013-01-09 03:22:00,
2013-01-08 20:27:00,34.9,11.8,30.26,South,180,0.0,0.0,38,0.00,,,0.00,meteohub,2013-01-09 03:27:00,
2013-01-08 20:32:00,34.7,12.4,30.30,South,180,0.0,0.0,39,0.00,,,0.00,meteohub,2013-01-09 03:32:00,
2013-01-08 20:37:00,34.3,12.0,30.30,South,180,0.0,0.0,39,0.00,,,0.00,meteohub,2013-01-09 03:37:00,
2013-01-08 20:42:00,34.0,12.2,30.31,ENE,68,0.0,0.0,40,0.00,,,0.00,meteohub,2013-01-09 03:42:00,
2013-01-08 20:47:00,33.8,12.0,30.31,NNW,338,0.0,0.0,40,0.00,,,0.00,meteohub,2013-01-09 03:47:00,
2013-01-08 20:52:00,33.8,12.0,30.31,NNW,338,1.0,0.0,40,0.00,,,0.00,meteohub,2013-01-09 03:52:00,
2013-01-08 20:57:00,33.6,12.0,30.31,NNW,338,0.0,2.0,40,0.00,,,0.00,meteohub,2013-01-09 03:57:00,
2013-01-08 21:02:00,33.1,11.5,30.32,NNW,338,0.0,2.0,40,0.00,,,0.00,meteohub,2013-01-09 04:02:00,
2013-01-08 21:07:00,32.5,11.5,30.32,NNW,338,0.0,2.0,41,0.00,,,0.00,meteohub,2013-01-09 04:07:00,
2013-01-08 21:12:00,32.0,10.9,30.33,NNW,338,0.0,0.0,41,0.00,,,0.00,meteohub,2013-01-09 04:12:00,
2013-01-08 21:17:00,31.6,10.6,30.34,NNE,22,0.0,0.0,41,0.00,,,0.00,meteohub,2013-01-09 04:17:00,
2013-01-08 21:22:00,32.4,11.8,30.33,NNE,22,0.0,0.0,42,0.00,,,0.00,meteohub,2013-01-09 04:22:00,
2013-01-08 21:27:00,32.5,12.0,30.32,NNE,22,0.0,0.0,42,0.00,,,0.00,meteohub,2013-01-09 04:27:00,
2013-01-08 21:32:00,32.4,11.8,30.36,North,0,0.0,0.0,42,0.00,,,0.00,meteohub,2013-01-09 04:32:00,
2013-01-08 21:37:00,32.4,11.8,30.36,North,0,0.0,0.0,42,0.00,,,0.00,meteohub,2013-01-09 04:37:00,
2013-01-08 21:42:00,31.5,11.1,30.38,NNE,22,0.0,0.0,42,0.00,,,0.00,meteohub,2013-01-09 04:42:00,
2013-01-08 21:47:00,31.1,10.8,30.38,NNE,22,0.0,0.0,42,0.00,,,0.00,meteohub,2013-01-09 04:47:00,
2013-01-08 21:52:00,30.7,10.4,30.38,NNE,22,0.0,0.0,42,0.00,,,0.00,meteohub,2013-01-09 04:52:00,
2013-01-08 21:57:00,30.2,10.4,30.39,NNE,22,0.0,0.0,43,0.00,,,0.00,meteohub,2013-01-09 04:57:00,
2013-01-08 22:03:00,30.0,10.2,30.39,NNE,22,0.0,0.0,43,0.00,,,0.00,meteohub,2013-01-09 05:03:00,
2013-01-08 22:07:00,29.8,10.0,30.40,NNE,22,0.0,0.0,43,0.00,,,0.00,meteohub,2013-01-09 05:07:00,
2013-01-08 22:12:00,29.5,10.2,30.40,NNE,22,0.0,0.0,44,0.00,,,0.00,meteohub,2013-01-09 05:12:00,
2013-01-08 22:17:00,29.3,10.0,30.40,NNE,22,0.0,0.0,44,0.00,,,0.00,meteohub,2013-01-09 05:17:00,
2013-01-08 22:22:00,29.1,10.0,30.40,NNE,22,0.0,0.0,44,0.00,,,0.00,meteohub,2013-01-09 05:22:00,
2013-01-08 22:27:00,28.8,9.7,30.41,NNE,22,0.0,0.0,44,0.00,,,0.00,meteohub,2013-01-09 05:27:00,
2013-01-08 22:32:00,28.6,9.5,30.41,NNE,22,0.0,0.0,44,0.00,,,0.00,meteohub,2013-01-09 05:32:00,
2013-01-08 22:42:00,28.2,9.7,30.41,NNE,22,0.0,0.0,45,0.00,,,0.00,meteohub,2013-01-09 05:42:00,
2013-01-08 22:47:00,28.6,10.0,30.41,NNE,22,0.0,0.0,45,0.00,,,0.00,meteohub,2013-01-09 05:47:00,
2013-01-08 22:52:00,28.6,10.0,30.41,SSE,158,0.0,0.0,45,0.00,,,0.00,meteohub,2013-01-09 05:52:00,
2013-01-08 22:57:00,28.6,10.0,30.41,SSE,158,0.0,0.0,45,0.00,,,0.00,meteohub,2013-01-09 05:57:00,
2013-01-08 23:02:00,28.2,9.7,30.41,ENE,68,0.0,0.0,45,0.00,,,0.00,meteohub,2013-01-09 06:02:00,
2013-01-08 23:07:00,27.9,9.3,30.42,ENE,68,0.0,0.0,45,0.00,,,0.00,meteohub,2013-01-09 06:07:00,
2013-01-08 23:12:00,27.7,9.1,30.42,ENE,68,0.0,0.0,45,0.00,,,0.00,meteohub,2013-01-09 06:12:00,
2013-01-08 23:17:00,27.3,9.3,30.43,ENE,68,0.0,0.0,46,0.00,,,0.00,meteohub,2013-01-09 06:17:00,
2013-01-08 23:22:00,27.1,9.1,30.43,SE,135,0.0,0.0,46,0.00,,,0.00,meteohub,2013-01-09 06:22:00,
2013-01-08 23:27:00,27.0,9.0,30.43,SSE,158,0.0,0.0,46,0.00,,,0.00,meteohub,2013-01-09 06:27:00,
2013-01-08 23:32:00,27.1,9.7,30.43,SE,135,0.0,0.0,47,0.00,,,0.00,meteohub,2013-01-09 06:32:00,
2013-01-08 23:37:00,27.1,9.7,30.43,South,180,0.0,0.0,47,0.00,,,0.00,meteohub,2013-01-09 06:37:00,
2013-01-08 23:42:00,27.3,9.9,30.43,SSW,202,0.0,0.0,47,0.00,,,0.00,meteohub,2013-01-09 06:42:00,
2013-01-08 23:47:00,27.1,9.7,30.43,SSW,202,0.0,0.0,47,0.00,,,0.00,meteohub,2013-01-09 06:47:00,
2013-01-08 23:52:00,27.0,9.9,30.43,SSW,202,0.0,0.0,48,0.00,,,0.00,meteohub,2013-01-09 06:52:00,
2013-01-08 23:57:00,26.6,10.0,30.43,SSW,202,0.0,0.0,49,0.00,,,0.00,meteohub,2013-01-09 06:57:00,